sensor_id;sensor_type;location;lat;lon;timestamp;pressure;altitude;pressure_sealevel;temperature
47484;BMP280;54076;50.322;18.650;2023-01-26T00:03:42;99726.80;;;2.75
47484;BMP280;54076;50.322;18.650;2023-01-26T00:08:46;99721.87;;;2.57
47484;BMP280;54076;50.322;18.650;2023-01-26T00:13:52;99719.59;;;2.46
47484;BMP280;54076;50.322;18.650;2023-01-26T00:18:53;99713.58;;;2.48
47484;BMP280;54076;50.322;18.650;2023-01-26T00:23:55;99710.14;;;2.48
47484;BMP280;54076;50.322;18.650;2023-01-26T00:28:59;99704.44;;;2.48
47484;BMP280;54076;50.322;18.650;2023-01-26T00:34:01;99702.52;;;2.50
47484;BMP280;54076;50.322;18.650;2023-01-26T00:39:02;99704.09;;;2.55
47484;BMP280;54076;50.322;18.650;2023-01-26T00:44:04;99704.40;;;2.62
47484;BMP280;54076;50.322;18.650;2023-01-26T00:49:05;99696.51;;;2.61
47484;BMP280;54076;50.322;18.650;2023-01-26T00:54:06;99695.23;;;2.53
47484;BMP280;54076;50.322;18.650;2023-01-26T00:59:07;99695.58;;;2.49
47484;BMP280;54076;50.322;18.650;2023-01-26T01:04:08;99700.89;;;2.48
47484;BMP280;54076;50.322;18.650;2023-01-26T01:09:10;99694.83;;;2.32
47484;BMP280;54076;50.322;18.650;2023-01-26T01:14:13;99697.41;;;2.34
47484;BMP280;54076;50.322;18.650;2023-01-26T01:19:16;99688.54;;;2.28
47484;BMP280;54076;50.322;18.650;2023-01-26T01:24:18;99682.75;;;2.15
47484;BMP280;54076;50.322;18.650;2023-01-26T01:29:19;99677.79;;;2.01
47484;BMP280;54076;50.322;18.650;2023-01-26T01:34:20;99683.84;;;2.10
47484;BMP280;54076;50.322;18.650;2023-01-26T01:39:21;99684.30;;;2.01
47484;BMP280;54076;50.322;18.650;2023-01-26T01:44:24;99677.49;;;2.21
47484;BMP280;54076;50.322;18.650;2023-01-26T01:49:32;99672.36;;;2.27
47484;BMP280;54076;50.322;18.650;2023-01-26T01:54:50;99661.44;;;2.33
47484;BMP280;54076;50.322;18.650;2023-01-26T02:00:08;99649.48;;;2.31
47484;BMP280;54076;50.322;18.650;2023-01-26T02:05:23;99644.45;;;2.13
47484;BMP280;54076;50.322;18.650;2023-01-26T02:10:25;99649.90;;;2.02
47484;BMP280;54076;50.322;18.650;2023-01-26T02:15:27;99651.64;;;1.98
47484;BMP280;54076;50.322;18.650;2023-01-26T02:20:51;99655.07;;;2.05
47484;BMP280;54076;50.322;18.650;2023-01-26T02:30:55;99639.16;;;2.11
47484;BMP280;54076;50.322;18.650;2023-01-26T02:35:57;99629.37;;;2.22
47484;BMP280;54076;50.322;18.650;2023-01-26T02:41:06;99629.91;;;2.07
47484;BMP280;54076;50.322;18.650;2023-01-26T02:46:08;99625.19;;;2.07
47484;BMP280;54076;50.322;18.650;2023-01-26T02:51:09;99620.95;;;2.16
47484;BMP280;54076;50.322;18.650;2023-01-26T02:56:11;99621.80;;;2.04
47484;BMP280;54076;50.322;18.650;2023-01-26T03:01:12;99615.73;;;2.04
47484;BMP280;54076;50.322;18.650;2023-01-26T03:06:13;99611.07;;;1.83
47484;BMP280;54076;50.322;18.650;2023-01-26T03:11:15;99607.80;;;1.56
47484;BMP280;54076;50.322;18.650;2023-01-26T03:16:16;99596.81;;;1.73
47484;BMP280;54076;50.322;18.650;2023-01-26T03:21:18;99588.11;;;1.86
47484;BMP280;54076;50.322;18.650;2023-01-26T03:26:39;99582.58;;;1.97
47484;BMP280;54076;50.322;18.650;2023-01-26T03:31:59;99575.21;;;2.12
47484;BMP280;54076;50.322;18.650;2023-01-26T03:37:00;99572.48;;;2.13
47484;BMP280;54076;50.322;18.650;2023-01-26T03:42:03;99568.09;;;2.09
47484;BMP280;54076;50.322;18.650;2023-01-26T03:47:23;99558.72;;;2.06
47484;BMP280;54076;50.322;18.650;2023-01-26T03:52:42;99554.47;;;2.20
47484;BMP280;54076;50.322;18.650;2023-01-26T03:58:02;99544.72;;;2.36
47484;BMP280;54076;50.322;18.650;2023-01-26T04:03:03;99540.09;;;2.26
47484;BMP280;54076;50.322;18.650;2023-01-26T04:08:23;99537.78;;;2.13
47484;BMP280;54076;50.322;18.650;2023-01-26T04:13:24;99537.54;;;2.29
47484;BMP280;54076;50.322;18.650;2023-01-26T04:18:44;99532.30;;;2.22
47484;BMP280;54076;50.322;18.650;2023-01-26T04:24:05;99521.74;;;2.29
47484;BMP280;54076;50.322;18.650;2023-01-26T04:29:15;99518.27;;;2.10
47484;BMP280;54076;50.322;18.650;2023-01-26T04:34:16;99505.58;;;2.14
47484;BMP280;54076;50.322;18.650;2023-01-26T04:39:18;99508.16;;;2.26
47484;BMP280;54076;50.322;18.650;2023-01-26T04:44:19;99513.09;;;2.31
47484;BMP280;54076;50.322;18.650;2023-01-26T04:49:20;99509.17;;;2.48
47484;BMP280;54076;50.322;18.650;2023-01-26T04:54:22;99502.95;;;2.38
47484;BMP280;54076;50.322;18.650;2023-01-26T04:59:23;99503.27;;;2.48
47484;BMP280;54076;50.322;18.650;2023-01-26T05:04:24;99507.92;;;2.44
47484;BMP280;54076;50.322;18.650;2023-01-26T05:09:26;99506.02;;;2.39
47484;BMP280;54076;50.322;18.650;2023-01-26T05:14:27;99500.24;;;2.40
47484;BMP280;54076;50.322;18.650;2023-01-26T05:19:28;99498.55;;;2.47
47484;BMP280;54076;50.322;18.650;2023-01-26T05:24:29;99488.70;;;2.47
47484;BMP280;54076;50.322;18.650;2023-01-26T05:29:30;99482.09;;;2.32
47484;BMP280;54076;50.322;18.650;2023-01-26T05:34:31;99484.20;;;2.39
47484;BMP280;54076;50.322;18.650;2023-01-26T05:39:32;99482.64;;;2.47
47484;BMP280;54076;50.322;18.650;2023-01-26T05:44:33;99491.84;;;2.37
47484;BMP280;54076;50.322;18.650;2023-01-26T05:49:35;99496.13;;;2.38
47484;BMP280;54076;50.322;18.650;2023-01-26T05:54:40;99490.95;;;2.39
47484;BMP280;54076;50.322;18.650;2023-01-26T05:59:41;99496.06;;;2.41
47484;BMP280;54076;50.322;18.650;2023-01-26T06:04:42;99500.41;;;2.27
47484;BMP280;54076;50.322;18.650;2023-01-26T06:09:43;99493.08;;;2.29
47484;BMP280;54076;50.322;18.650;2023-01-26T06:14:46;99494.22;;;2.34
47484;BMP280;54076;50.322;18.650;2023-01-26T06:19:47;99490.64;;;2.37
47484;BMP280;54076;50.322;18.650;2023-01-26T06:24:48;99488.06;;;2.40
47484;BMP280;54076;50.322;18.650;2023-01-26T06:29:50;99489.30;;;2.44
47484;BMP280;54076;50.322;18.650;2023-01-26T06:34:51;99487.15;;;2.35
47484;BMP280;54076;50.322;18.650;2023-01-26T06:39:53;99487.88;;;2.43
47484;BMP280;54076;50.322;18.650;2023-01-26T06:44:54;99490.71;;;2.30
47484;BMP280;54076;50.322;18.650;2023-01-26T06:49:57;99492.09;;;2.34
47484;BMP280;54076;50.322;18.650;2023-01-26T06:54:59;99483.27;;;2.36
47484;BMP280;54076;50.322;18.650;2023-01-26T07:00:01;99480.05;;;2.27
47484;BMP280;54076;50.322;18.650;2023-01-26T07:05:03;99480.95;;;2.38
47484;BMP280;54076;50.322;18.650;2023-01-26T07:10:05;99465.98;;;2.38
47484;BMP280;54076;50.322;18.650;2023-01-26T07:15:09;99465.50;;;2.48
47484;BMP280;54076;50.322;18.650;2023-01-26T07:20:11;99465.73;;;2.47
47484;BMP280;54076;50.322;18.650;2023-01-26T07:25:13;99464.17;;;2.58
47484;BMP280;54076;50.322;18.650;2023-01-26T07:30:14;99457.48;;;2.49
47484;BMP280;54076;50.322;18.650;2023-01-26T07:35:16;99448.21;;;2.58
47484;BMP280;54076;50.322;18.650;2023-01-26T07:40:18;99452.00;;;2.68
47484;BMP280;54076;50.322;18.650;2023-01-26T07:45:19;99454.08;;;2.78
47484;BMP280;54076;50.322;18.650;2023-01-26T07:50:21;99453.92;;;2.81
47484;BMP280;54076;50.322;18.650;2023-01-26T07:55:22;99452.77;;;2.91
47484;BMP280;54076;50.322;18.650;2023-01-26T08:00:26;99455.31;;;2.87
47484;BMP280;54076;50.322;18.650;2023-01-26T08:05:27;99453.30;;;2.95
47484;BMP280;54076;50.322;18.650;2023-01-26T08:10:29;99461.00;;;2.98
47484;BMP280;54076;50.322;18.650;2023-01-26T08:15:31;99456.76;;;3.00
47484;BMP280;54076;50.322;18.650;2023-01-26T08:20:32;99454.00;;;3.02
47484;BMP280;54076;50.322;18.650;2023-01-26T08:25:33;99452.37;;;3.17
47484;BMP280;54076;50.322;18.650;2023-01-26T08:30:35;99455.38;;;3.40
47484;BMP280;54076;50.322;18.650;2023-01-26T08:35:39;99449.00;;;3.11
47484;BMP280;54076;50.322;18.650;2023-01-26T08:40:40;99445.52;;;3.13
47484;BMP280;54076;50.322;18.650;2023-01-26T08:45:41;99447.05;;;3.16
47484;BMP280;54076;50.322;18.650;2023-01-26T08:50:43;99443.39;;;3.10
47484;BMP280;54076;50.322;18.650;2023-01-26T08:55:44;99443.10;;;3.29
47484;BMP280;54076;50.322;18.650;2023-01-26T09:00:46;99448.30;;;3.38
47484;BMP280;54076;50.322;18.650;2023-01-26T09:05:47;99453.98;;;3.46
47484;BMP280;54076;50.322;18.650;2023-01-26T09:10:48;99443.73;;;3.44
47484;BMP280;54076;50.322;18.650;2023-01-26T09:15:49;99440.65;;;3.41
47484;BMP280;54076;50.322;18.650;2023-01-26T09:20:50;99433.44;;;3.53
47484;BMP280;54076;50.322;18.650;2023-01-26T09:25:52;99440.13;;;3.41
47484;BMP280;54076;50.322;18.650;2023-01-26T09:30:54;99436.36;;;3.55
47484;BMP280;54076;50.322;18.650;2023-01-26T09:35:55;99440.69;;;3.54
47484;BMP280;54076;50.322;18.650;2023-01-26T09:41:19;99442.09;;;3.52
47484;BMP280;54076;50.322;18.650;2023-01-26T09:56:40;99427.54;;;3.61
47484;BMP280;54076;50.322;18.650;2023-01-26T10:01:50;99425.48;;;3.41
47484;BMP280;54076;50.322;18.650;2023-01-26T10:06:55;99415.36;;;3.53
47484;BMP280;54076;50.322;18.650;2023-01-26T10:12:01;99420.27;;;3.64
47484;BMP280;54076;50.322;18.650;2023-01-26T10:17:09;99410.70;;;3.65
47484;BMP280;54076;50.322;18.650;2023-01-26T10:22:21;99415.59;;;3.77
47484;BMP280;54076;50.322;18.650;2023-01-26T10:27:29;99416.60;;;3.70
47484;BMP280;54076;50.322;18.650;2023-01-26T10:32:30;99409.10;;;3.80
47484;BMP280;54076;50.322;18.650;2023-01-26T10:37:32;99404.88;;;3.81
47484;BMP280;54076;50.322;18.650;2023-01-26T10:42:36;99397.15;;;3.67
47484;BMP280;54076;50.322;18.650;2023-01-26T10:47:37;99401.16;;;3.94
47484;BMP280;54076;50.322;18.650;2023-01-26T10:52:55;99399.84;;;4.00
47484;BMP280;54076;50.322;18.650;2023-01-26T10:57:57;99395.37;;;3.99
47484;BMP280;54076;50.322;18.650;2023-01-26T11:03:17;99388.84;;;3.95
47484;BMP280;54076;50.322;18.650;2023-01-26T11:08:45;99384.13;;;3.93
47484;BMP280;54076;50.322;18.650;2023-01-26T11:13:46;99374.27;;;4.00
47484;BMP280;54076;50.322;18.650;2023-01-26T11:19:01;99366.84;;;4.00
47484;BMP280;54076;50.322;18.650;2023-01-26T11:24:42;99363.58;;;4.13
47484;BMP280;54076;50.322;18.650;2023-01-26T11:30:40;99366.91;;;3.87
47484;BMP280;54076;50.322;18.650;2023-01-26T11:53:04;99333.90;;;3.81
47484;BMP280;54076;50.322;18.650;2023-01-26T12:03:47;99325.46;;;3.76
47484;BMP280;54076;50.322;18.650;2023-01-26T12:09:45;99314.40;;;3.80
47484;BMP280;54076;50.322;18.650;2023-01-26T12:20:19;99298.69;;;4.09
47484;BMP280;54076;50.322;18.650;2023-01-26T12:25:38;99290.75;;;4.19
47484;BMP280;54076;50.322;18.650;2023-01-26T12:31:23;99290.77;;;3.90
47484;BMP280;54076;50.322;18.650;2023-01-26T12:42:53;99273.86;;;3.77
47484;BMP280;54076;50.322;18.650;2023-01-26T12:48:28;99269.97;;;3.76
47484;BMP280;54076;50.322;18.650;2023-01-26T12:54:02;99275.48;;;3.90
47484;BMP280;54076;50.322;18.650;2023-01-26T12:59:30;99268.70;;;3.83
47484;BMP280;54076;50.322;18.650;2023-01-26T13:04:32;99274.52;;;3.77
47484;BMP280;54076;50.322;18.650;2023-01-26T13:09:34;99278.38;;;3.82
47484;BMP280;54076;50.322;18.650;2023-01-26T13:29:53;99274.87;;;3.58
47484;BMP280;54076;50.322;18.650;2023-01-26T13:34:58;99272.81;;;3.76
47484;BMP280;54076;50.322;18.650;2023-01-26T13:40:27;99272.56;;;3.72
47484;BMP280;54076;50.322;18.650;2023-01-26T13:45:39;99270.06;;;3.84
47484;BMP280;54076;50.322;18.650;2023-01-26T13:50:49;99260.59;;;3.73
47484;BMP280;54076;50.322;18.650;2023-01-26T13:55:57;99259.16;;;3.79
47484;BMP280;54076;50.322;18.650;2023-01-26T14:01:05;99254.71;;;3.83
47484;BMP280;54076;50.322;18.650;2023-01-26T14:06:16;99255.75;;;3.96
47484;BMP280;54076;50.322;18.650;2023-01-26T14:11:23;99259.35;;;3.70
47484;BMP280;54076;50.322;18.650;2023-01-26T14:16:35;99253.21;;;3.74
47484;BMP280;54076;50.322;18.650;2023-01-26T14:21:58;99258.45;;;3.85
47484;BMP280;54076;50.322;18.650;2023-01-26T14:27:03;99252.04;;;3.68
47484;BMP280;54076;50.322;18.650;2023-01-26T14:32:14;99254.85;;;3.54
47484;BMP280;54076;50.322;18.650;2023-01-26T14:37:16;99254.80;;;3.50
47484;BMP280;54076;50.322;18.650;2023-01-26T14:42:18;99257.23;;;3.52
47484;BMP280;54076;50.322;18.650;2023-01-26T14:47:26;99263.04;;;3.44
47484;BMP280;54076;50.322;18.650;2023-01-26T14:52:35;99254.58;;;3.58
47484;BMP280;54076;50.322;18.650;2023-01-26T14:57:40;99243.92;;;3.37
47484;BMP280;54076;50.322;18.650;2023-01-26T15:02:43;99240.48;;;3.35
47484;BMP280;54076;50.322;18.650;2023-01-26T15:07:58;99239.05;;;3.49
47484;BMP280;54076;50.322;18.650;2023-01-26T15:28:24;99244.66;;;3.20
47484;BMP280;54076;50.322;18.650;2023-01-26T15:33:55;99244.09;;;3.24
47484;BMP280;54076;50.322;18.650;2023-01-26T15:44:17;99246.98;;;3.12
47484;BMP280;54076;50.322;18.650;2023-01-26T15:49:19;99250.70;;;3.10
47484;BMP280;54076;50.322;18.650;2023-01-26T15:54:22;99253.30;;;3.10
47484;BMP280;54076;50.322;18.650;2023-01-26T15:59:23;99252.02;;;3.01
47484;BMP280;54076;50.322;18.650;2023-01-26T16:04:24;99255.95;;;3.14
47484;BMP280;54076;50.322;18.650;2023-01-26T16:09:28;99249.79;;;3.10
47484;BMP280;54076;50.322;18.650;2023-01-26T16:14:29;99248.89;;;3.08
47484;BMP280;54076;50.322;18.650;2023-01-26T16:19:30;99238.43;;;3.08
47484;BMP280;54076;50.322;18.650;2023-01-26T16:24:31;99237.70;;;2.70
47484;BMP280;54076;50.322;18.650;2023-01-26T16:29:32;99244.14;;;2.71
47484;BMP280;54076;50.322;18.650;2023-01-26T16:34:34;99244.91;;;2.75
47484;BMP280;54076;50.322;18.650;2023-01-26T16:39:35;99239.34;;;2.78
47484;BMP280;54076;50.322;18.650;2023-01-26T16:44:37;99238.21;;;2.86
47484;BMP280;54076;50.322;18.650;2023-01-26T16:49:38;99237.14;;;2.84
47484;BMP280;54076;50.322;18.650;2023-01-26T16:54:39;99240.45;;;2.73
47484;BMP280;54076;50.322;18.650;2023-01-26T16:59:40;99238.48;;;2.77
47484;BMP280;54076;50.322;18.650;2023-01-26T17:04:41;99245.10;;;2.73
47484;BMP280;54076;50.322;18.650;2023-01-26T17:09:43;99244.20;;;2.82
47484;BMP280;54076;50.322;18.650;2023-01-26T17:14:44;99244.27;;;2.76
47484;BMP280;54076;50.322;18.650;2023-01-26T17:19:45;99237.06;;;2.82
47484;BMP280;54076;50.322;18.650;2023-01-26T17:24:46;99241.45;;;2.76
47484;BMP280;54076;50.322;18.650;2023-01-26T17:29:47;99242.73;;;2.72
47484;BMP280;54076;50.322;18.650;2023-01-26T17:34:51;99238.59;;;2.74
47484;BMP280;54076;50.322;18.650;2023-01-26T17:39:52;99236.58;;;2.72
47484;BMP280;54076;50.322;18.650;2023-01-26T17:44:53;99238.36;;;2.72
47484;BMP280;54076;50.322;18.650;2023-01-26T17:49:54;99233.52;;;2.78
47484;BMP280;54076;50.322;18.650;2023-01-26T17:54:56;99239.65;;;2.74
47484;BMP280;54076;50.322;18.650;2023-01-26T17:59:57;99248.80;;;2.70
47484;BMP280;54076;50.322;18.650;2023-01-26T18:04:58;99251.16;;;2.79
47484;BMP280;54076;50.322;18.650;2023-01-26T18:09:59;99250.65;;;2.41
47484;BMP280;54076;50.322;18.650;2023-01-26T18:15:00;99259.92;;;2.61
47484;BMP280;54076;50.322;18.650;2023-01-26T18:20:03;99266.33;;;2.64
47484;BMP280;54076;50.322;18.650;2023-01-26T18:25:05;99269.70;;;2.65
47484;BMP280;54076;50.322;18.650;2023-01-26T18:30:07;99267.96;;;2.66
47484;BMP280;54076;50.322;18.650;2023-01-26T18:35:09;99264.77;;;2.64
47484;BMP280;54076;50.322;18.650;2023-01-26T18:40:11;99260.30;;;2.69
47484;BMP280;54076;50.322;18.650;2023-01-26T18:45:13;99249.08;;;2.51
47484;BMP280;54076;50.322;18.650;2023-01-26T18:50:14;99253.02;;;2.71
47484;BMP280;54076;50.322;18.650;2023-01-26T18:55:16;99248.66;;;2.68
47484;BMP280;54076;50.322;18.650;2023-01-26T19:00:17;99252.63;;;2.56
47484;BMP280;54076;50.322;18.650;2023-01-26T19:05:19;99253.63;;;2.78
47484;BMP280;54076;50.322;18.650;2023-01-26T19:10:20;99248.94;;;2.70
47484;BMP280;54076;50.322;18.650;2023-01-26T19:15:21;99247.48;;;2.59
47484;BMP280;54076;50.322;18.650;2023-01-26T19:20:23;99244.52;;;2.57
47484;BMP280;54076;50.322;18.650;2023-01-26T19:25:24;99249.16;;;2.39
47484;BMP280;54076;50.322;18.650;2023-01-26T19:30:26;99250.23;;;2.34
47484;BMP280;54076;50.322;18.650;2023-01-26T19:35:30;99251.38;;;2.27
47484;BMP280;54076;50.322;18.650;2023-01-26T19:40:32;99254.95;;;2.36
47484;BMP280;54076;50.322;18.650;2023-01-26T19:45:34;99256.95;;;2.50
47484;BMP280;54076;50.322;18.650;2023-01-26T19:50:35;99262.63;;;2.23
47484;BMP280;54076;50.322;18.650;2023-01-26T19:55:37;99263.72;;;2.20
47484;BMP280;54076;50.322;18.650;2023-01-26T20:00:38;99258.45;;;2.25
47484;BMP280;54076;50.322;18.650;2023-01-26T20:05:39;99254.52;;;2.20
47484;BMP280;54076;50.322;18.650;2023-01-26T20:10:40;99252.63;;;2.17
47484;BMP280;54076;50.322;18.650;2023-01-26T20:15:41;99247.42;;;2.33
47484;BMP280;54076;50.322;18.650;2023-01-26T20:20:51;99253.67;;;2.43
47484;BMP280;54076;50.322;18.650;2023-01-26T20:26:05;99254.63;;;2.57
47484;BMP280;54076;50.322;18.650;2023-01-26T20:31:14;99255.14;;;2.37
47484;BMP280;54076;50.322;18.650;2023-01-26T20:36:20;99246.46;;;2.54
47484;BMP280;54076;50.322;18.650;2023-01-26T20:41:27;99241.13;;;2.28
47484;BMP280;54076;50.322;18.650;2023-01-26T20:46:38;99239.42;;;2.37
47484;BMP280;54076;50.322;18.650;2023-01-26T20:51:41;99234.17;;;2.63
47484;BMP280;54076;50.322;18.650;2023-01-26T20:56:45;99231.85;;;2.73
47484;BMP280;54076;50.322;18.650;2023-01-26T21:01:46;99228.33;;;2.49
47484;BMP280;54076;50.322;18.650;2023-01-26T21:06:47;99227.42;;;2.62
47484;BMP280;54076;50.322;18.650;2023-01-26T21:11:48;99224.27;;;2.46
47484;BMP280;54076;50.322;18.650;2023-01-26T21:16:49;99220.41;;;2.32
47484;BMP280;54076;50.322;18.650;2023-01-26T21:21:51;99221.52;;;2.29
47484;BMP280;54076;50.322;18.650;2023-01-26T21:26:52;99226.75;;;2.33
47484;BMP280;54076;50.322;18.650;2023-01-26T21:31:53;99218.52;;;2.16
47484;BMP280;54076;50.322;18.650;2023-01-26T21:36:54;99223.27;;;2.05
47484;BMP280;54076;50.322;18.650;2023-01-26T21:41:55;99215.73;;;2.24
47484;BMP280;54076;50.322;18.650;2023-01-26T21:47:02;99217.76;;;2.14
47484;BMP280;54076;50.322;18.650;2023-01-26T21:52:08;99215.98;;;2.12
47484;BMP280;54076;50.322;18.650;2023-01-26T21:57:28;99215.94;;;2.22
47484;BMP280;54076;50.322;18.650;2023-01-26T22:02:48;99208.91;;;2.17
47484;BMP280;54076;50.322;18.650;2023-01-26T22:07:50;99207.29;;;2.11
47484;BMP280;54076;50.322;18.650;2023-01-26T22:12:51;99204.80;;;2.07
47484;BMP280;54076;50.322;18.650;2023-01-26T22:17:52;99202.61;;;2.12
47484;BMP280;54076;50.322;18.650;2023-01-26T22:22:53;99202.06;;;1.80
47484;BMP280;54076;50.322;18.650;2023-01-26T22:27:54;99200.84;;;1.83
47484;BMP280;54076;50.322;18.650;2023-01-26T22:32:55;99196.27;;;2.09
47484;BMP280;54076;50.322;18.650;2023-01-26T22:37:57;99193.63;;;2.20
47484;BMP280;54076;50.322;18.650;2023-01-26T22:42:59;99196.06;;;2.23
47484;BMP280;54076;50.322;18.650;2023-01-26T22:48:00;99193.81;;;2.35
47484;BMP280;54076;50.322;18.650;2023-01-26T22:53:01;99190.85;;;1.92
47484;BMP280;54076;50.322;18.650;2023-01-26T22:58:03;99191.92;;;1.88
47484;BMP280;54076;50.322;18.650;2023-01-26T23:03:07;99188.80;;;2.03
47484;BMP280;54076;50.322;18.650;2023-01-26T23:08:08;99183.80;;;2.22
47484;BMP280;54076;50.322;18.650;2023-01-26T23:13:09;99185.49;;;1.98
47484;BMP280;54076;50.322;18.650;2023-01-26T23:18:11;99185.43;;;2.12
47484;BMP280;54076;50.322;18.650;2023-01-26T23:23:12;99185.23;;;2.16
47484;BMP280;54076;50.322;18.650;2023-01-26T23:28:14;99189.79;;;2.11
47484;BMP280;54076;50.322;18.650;2023-01-26T23:33:18;99183.71;;;2.04
47484;BMP280;54076;50.322;18.650;2023-01-26T23:38:21;99185.86;;;1.75
47484;BMP280;54076;50.322;18.650;2023-01-26T23:43:23;99184.40;;;2.07
47484;BMP280;54076;50.322;18.650;2023-01-26T23:48:25;99181.73;;;2.13
47484;BMP280;54076;50.322;18.650;2023-01-26T23:53:27;99183.04;;;2.07
47484;BMP280;54076;50.322;18.650;2023-01-26T23:58:30;99177.06;;;2.06
